Gadsden, AL (35903)

12:09 PM CST on February 13, 2016 (GMT -0600)
Glencoe | | Change Station
CLOSE
Current Station
Personal Weather Station
Location: Gadsden, AL
Elevation: 761 ft
Nearby Weather Stations

Elev 761 ft 33.96 °N, 85.90 °W | Updated 10 minutes ago

Clear
Clear
43.5 °F
Feels Like 41 °F
N
4.2
Wind Variable Wind from SW

Today
High -- | Low -- °F
--% Chance of Precip.
Yesterday
High -- | Low -- °F
Precip. -- in
Pressure 30.53 in
Visibility 10.0 miles
Clouds Clear
Windchill 41 °F
Dew Point 13 °F
Humidity 28%
Rainfall 0.00 in
Snow Depth Not available.
6:30 AM 5:25 PM
Waxing Crescent, 33% visible
METAR KGAD 131756Z AUTO 33011KT 10SM CLR 03/M11 A3046 RMK AO2 SLP339 T00331111 10033 21028 58006
Pressure 30.53 in
Visibility 10.0 miles
Clouds Clear
Windchill 41 °F
Dew Point 13 °F
Humidity 28%
Rainfall 0.00 in
Snow Depth Not available.
6:30 AM 5:25 PM
Waxing Crescent, 33% visible
METAR KGAD 131756Z AUTO 33011KT 10SM CLR 03/M11 A3046 RMK AO2 SLP339 T00331111 10033 21028 58006

10-Day Weather Forecast

Almanac

Astronomy

Feb. 13, 2016 Rise Set
Actual Time
Civil Twilight
Nautical Twilight
Astronomical Twilight
Moon
Length of Visible Light
Length of Day
Tomorrow will be .
, % of the Moon is Illuminated

Today's Extremes

State Highs State Lows

Community

WunderPhotos

Upload Photos

1,892,631 photos uploaded!

WunderBlog® & News

Nearby

Air Quality

  Air Quality AQ Index Pollutant
Not available.

Snow Depth

Station Depth Elevation

Earthquake Activity

City Distance Mag. Time & Date
Minimum magnitude displayed is 2.5.

Coastal Water Temperatures

Place Temperature

Stations

Nearby Weather Stations

Station Location Temp. Windchill Dew Point Humidity Wind Precip. Elev Updated Type
                   

Watches & Warnings

There are currently no watches in effect.